In Rescue
 
Open Full Screen Window  High Contrast Mode
Wind Gusting 00 knots
08
November 29, 2022 9:31 AM CST
Present Weather: Unknown Precipitation
Weather Information
Wind Direction
  010 °
Wind Speed
  08 kt (9 mph)
Wind Gust
  00 kt (0 mph)
Altimeter
29.61 in
Visibility
2 1/2 SM
Temperature
-02° C
28° F
Dewpoint
-03° C
27° F
Humidity
93%
1hr Rain Fall
00.01 in.
24hr Rain Fall
00.02 in.
Sky Condition
Overcast @ 2,700 ft
IFR

METAR KRGK 291531Z AUTO 01008KT 2 1/2SM UP OVC027 M02/M03 A2961 RMK AO2 P0001

FAA Disclaimer: The data displayed is for advisory purposes only and is not to be used for flight planning or operations.